Ana Sayfa
METAR-TAF:

METAR-TAF

Havaalanları :

Bursa Yenişehir Havalimanı

Bursa, Türkiye

Enlem: 40-15-19N, Boylam: 029-33-45E, yükseklik: 233 m

Güncel hava durumu gözlemi

Rapor saat 06:50 UTC de 35 dakika önce yapıldı.
Rüzgar doğu/güneydoğudan 3 kt, kuzeydoğu ve güney/güneydoğu arasında değişken
Sıcaklık 5°C
Nem 75%
Basınç 1021 hPa
Görüş mesafesi 10 km veya daha fazla
1500 m altında bulut yok ve kümülonimbus yok

METAR: LTBR 250650Z 11003KT 040V150 CAVOK 05/01 Q1021 NOSIG RMK RWY07 VRB02KT

Saat: 10:25 (07:25 UTC)

Tahmin

Rapor saat 04:40 UTC de 2 saat ve 45 dakika önce yapıldı.
Ayın 25'si saat 06 UTC'den ayın 26'si saat 06 UTC'ye kadar geçerli Tahmin
Rüzgar değişken yönden 2 kt
Görüş mesafesi 10 km veya daha fazla
1500 m altında bulut yok ve kümülonimbus yok
Olasılık 30%
ayın 26'si saat 03 UTC'den ayın 26'si saat 06 UTC'ye kadar
Görüş mesafesi: 4500 m
Pus

TAF: LTBR 250440Z 2506/2606 VRB02KT CAVOK PROB30 2603/2606 4500 BR

4.000'den fazla havaalanı için hava durumu gözlemleri ve tahminleri (METAR ve TAF raporları).

Kullanılabilir istasyonlar harita üzerinde sarı ve kırmızı noktalarla gösterilir.

İstasyonun adını görmek için fareyi noktanın üzerinde gezdirin.

Sonrasında hava gözlem ve tahminlerini görmek için tıklayın.

Haritayı değiştirmek için: yaklaştırmak için siyah artı işaretli yeşil düğmeye ve uzaklaştırmak için de eksi işaretli düğmeye hızla tıklayın; bitişik haritalar için yeşil okları kullanın.


METAR-TAF: